Time;durP1;ratioP1;P1;durP2;ratioP2;P2;SDS_P1;SDS_P2;PMS_P1;PMS_P2;Temp;Humidity;BMP_temperature;BMP_pressure;BME280_temperature;BME280_humidity;BME280_pressure;Samples;Min_cycle;Max_cycle;Signal;HPM_P1;HPM_P2
2023/10/25 00:01:23;;;;;;;11.07;5.68;;;9.20;99.90;;;;;;5048835;28;20113;-85
2023/10/25 00:03:49;;;;;;;11.32;5.05;;;9.20;99.90;;;;;;5054300;28;20045;-85
2023/10/25 00:06:16;;;;;;;12.35;5.43;;;9.10;99.90;;;;;;5051781;28;20499;-84
2023/10/25 00:08:43;;;;;;;13.65;5.82;;;9.20;99.90;;;;;;5049074;28;20042;-85
2023/10/25 00:11:10;;;;;;;14.85;5.78;;;9.00;99.90;;;;;;5044558;28;20044;-85
2023/10/25 00:13:37;;;;;;;12.05;6.38;;;9.20;99.90;;;;;;5048464;28;20038;-85
2023/10/25 00:16:04;;;;;;;14.15;4.95;;;9.10;99.90;;;;;;5034295;28;20045;-84
2023/10/25 00:18:31;;;;;;;11.93;5.28;;;9.00;99.90;;;;;;5051432;28;20406;-85
2023/10/25 00:20:57;;;;;;;16.88;5.50;;;9.10;99.90;;;;;;5039997;28;20048;-85
2023/10/25 00:23:24;;;;;;;11.80;5.38;;;9.00;99.90;;;;;;5067918;28;20037;-85
2023/10/25 00:25:51;;;;;;;11.95;5.53;;;8.90;99.90;;;;;;5052153;28;20725;-85
2023/10/25 00:28:18;;;;;;;10.60;5.22;;;9.50;99.90;;;;;;5051596;28;20041;-85
2023/10/25 00:30:46;;;;;;;9.98;5.07;;;9.30;99.90;;;;;;5051629;28;20514;-85
2023/10/25 00:33:13;;;;;;;15.05;5.35;;;9.00;99.90;;;;;;5041505;28;20033;-85
2023/10/25 00:35:40;;;;;;;9.60;4.72;;;8.90;99.90;;;;;;5040467;28;20099;-85
2023/10/25 00:38:07;;;;;;;12.05;5.40;;;8.90;99.90;;;;;;5070619;28;20561;-85
2023/10/25 00:40:33;;;;;;;9.75;5.00;;;8.90;99.90;;;;;;5051329;28;20045;-85
2023/10/25 00:43:20;;;;;;;8.48;5.13;;;9.40;99.90;;;;;;5082939;28;20052;-85
2023/10/25 00:46:11;;;;;;;13.15;4.85;;;9.10;99.90;;;;;;5038516;28;20038;-85
2023/10/25 00:48:40;;;;;;;13.13;5.07;;;9.00;99.90;;;;;;5037892;28;20037;-85
2023/10/25 00:51:09;;;;;;;10.30;5.28;;;8.80;99.90;;;;;;5053707;28;20098;-85
2023/10/25 00:53:40;;;;;;;13.60;5.22;;;8.80;99.90;;;;;;5051233;28;20041;-85
2023/10/25 00:56:10;;;;;;;14.13;6.32;;;8.70;99.90;;;;;;5054265;28;20077;-85
2023/10/25 00:58:42;;;;;;;11.98;5.28;;;9.00;99.90;;;;;;5051077;28;20107;-84
2023/10/25 01:01:09;;;;;;;9.80;4.80;;;8.70;99.90;;;;;;5058390;28;20099;-85
2023/10/25 01:03:35;;;;;;;11.38;4.82;;;8.70;99.90;;;;;;5054049;28;20045;-85
2023/10/25 01:06:02;;;;;;;11.93;5.25;;;8.70;99.90;;;;;;5053746;28;20068;-85
2023/10/25 01:08:29;;;;;;;12.05;4.70;;;8.70;99.90;;;;;;5054015;28;20033;-85
2023/10/25 01:10:56;;;;;;;13.20;4.57;;;9.10;99.90;;;;;;5053922;28;20067;-85
2023/10/25 01:13:23;;;;;;;11.70;4.60;;;8.60;99.90;;;;;;5041693;28;20029;-85
2023/10/25 01:15:49;;;;;;;8.25;4.40;;;9.30;99.90;;;;;;5048493;28;20533;-85
2023/10/25 01:18:18;;;;;;;12.20;5.10;;;9.00;99.90;;;;;;5053738;28;20044;-85
2023/10/25 01:20:45;;;;;;;13.40;4.93;;;8.60;99.90;;;;;;5065293;28;20041;-85
2023/10/25 01:23:12;;;;;;;10.35;4.60;;;8.60;99.90;;;;;;5026237;28;20499;-85
2023/10/25 01:25:39;;;;;;;10.48;4.68;;;8.60;99.90;;;;;;5047042;28;20052;-85
2023/10/25 01:28:06;;;;;;;7.95;4.60;;;8.60;99.90;;;;;;5063258;28;20044;-85
2023/10/25 01:30:32;;;;;;;9.15;4.40;;;9.10;99.90;;;;;;5047716;28;20041;-85
2023/10/25 01:32:59;;;;;;;10.48;4.03;;;9.20;99.90;;;;;;5053885;28;20080;-85
2023/10/25 01:35:26;;;;;;;13.57;4.25;;;8.50;99.90;;;;;;5053764;28;20155;-85
2023/10/25 01:37:54;;;;;;;10.40;5.10;;;8.70;99.90;;;;;;5070327;28;20494;-85
2023/10/25 01:40:20;;;;;;;12.05;4.30;;;8.50;99.90;;;;;;5053266;28;20368;-85
2023/10/25 01:42:54;;;;;;;11.20;4.63;;;8.50;99.90;;;;;;5040508;28;20049;-85
2023/10/25 01:45:24;;;;;;;9.98;4.53;;;9.10;99.90;;;;;;5053369;28;20033;-85
2023/10/25 01:47:51;;;;;;;13.73;4.43;;;8.50;99.90;;;;;;5069567;28;20036;-85
2023/10/25 01:50:19;;;;;;;7.80;3.70;;;8.40;99.90;;;;;;5053757;28;20115;-85
2023/10/25 01:52:45;;;;;;;10.65;4.15;;;8.40;99.90;;;;;;5036805;28;20048;-86
2023/10/25 01:55:12;;;;;;;11.30;4.07;;;8.40;99.90;;;;;;5034376;28;20045;-86
2023/10/25 01:57:39;;;;;;;8.27;4.20;;;8.30;99.90;;;;;;5050939;28;20499;-85
2023/10/25 02:00:09;;;;;;;9.60;4.25;;;8.40;99.90;;;;;;5042205;28;20065;-86
2023/10/25 02:02:35;;;;;;;10.98;4.45;;;8.40;99.90;;;;;;5049461;28;20452;-85
2023/10/25 02:05:02;;;;;;;9.48;4.32;;;8.40;99.90;;;;;;5052259;28;20072;-85
2023/10/25 02:07:29;;;;;;;8.98;4.00;;;8.40;99.90;;;;;;5066198;28;20758;-85
2023/10/25 02:09:56;;;;;;;6.63;4.00;;;8.70;99.90;;;;;;5055005;28;20131;-85
2023/10/25 02:12:22;;;;;;;11.68;4.50;;;8.40;99.90;;;;;;5042195;28;20033;-85
2023/10/25 02:14:49;;;;;;;9.88;4.72;;;8.80;99.90;;;;;;5046401;28;20503;-85
2023/10/25 02:17:16;;;;;;;9.88;4.45;;;8.40;99.90;;;;;;5065508;28;20045;-85
2023/10/25 02:19:45;;;;;;;13.90;4.82;;;8.30;99.90;;;;;;5049461;28;20041;-86
2023/10/25 02:22:12;;;;;;;9.68;4.65;;;8.40;99.90;;;;;;5039860;28;20047;-85
2023/10/25 02:24:38;;;;;;;10.65;5.07;;;8.40;99.90;;;;;;5053247;28;20041;-85
2023/10/25 02:27:05;;;;;;;13.68;4.60;;;8.30;99.90;;;;;;5053020;28;20041;-85
2023/10/25 02:29:32;;;;;;;12.80;4.75;;;8.40;99.90;;;;;;5049568;28;20034;-85
2023/10/25 02:31:59;;;;;;;10.45;5.63;;;8.40;99.90;;;;;;5067602;28;20037;-85
2023/10/25 02:34:26;;;;;;;10.13;5.30;;;8.50;99.90;;;;;;5037643;28;20037;-85
2023/10/25 02:36:52;;;;;;;11.70;5.10;;;8.30;99.90;;;;;;5065820;28;20457;-85
2023/10/25 02:39:19;;;;;;;12.07;5.75;;;8.50;99.90;;;;;;5037431;28;20042;-85
2023/10/25 02:41:46;;;;;;;8.38;4.95;;;8.30;99.90;;;;;;5048743;28;20116;-85
2023/10/25 02:44:12;;;;;;;12.32;5.05;;;8.80;99.90;;;;;;5049538;28;20048;-85
2023/10/25 02:46:39;;;;;;;11.60;5.28;;;8.30;99.90;;;;;;5065257;28;20052;-85
2023/10/25 02:49:06;;;;;;;13.43;5.28;;;8.70;99.90;;;;;;5068904;28;20067;-85
2023/10/25 02:51:32;;;;;;;10.82;5.30;;;8.20;99.90;;;;;;5065729;28;20037;-85
2023/10/25 02:53:59;;;;;;;10.63;5.53;;;8.30;99.90;;;;;;5051069;28;20120;-85
2023/10/25 02:56:25;;;;;;;11.10;5.47;;;8.20;99.90;;;;;;5049382;28;20041;-85
2023/10/25 02:58:52;;;;;;;9.77;4.85;;;8.30;99.90;;;;;;5036137;28;20058;-85
2023/10/25 03:01:23;;;;;;;13.25;5.10;;;8.20;99.90;;;;;;5034227;28;20038;-85
2023/10/25 03:03:51;;;;;;;15.60;5.85;;;8.30;99.90;;;;;;5044618;28;20092;-85
2023/10/25 03:06:18;;;;;;;12.60;5.70;;;8.20;99.90;;;;;;5041906;28;20124;-84
2023/10/25 03:08:45;;;;;;;10.88;5.78;;;9.00;99.90;;;;;;5049390;28;20072;-85
2023/10/25 03:11:11;;;;;;;14.55;5.18;;;8.20;99.90;;;;;;5039930;28;20508;-85
2023/10/25 03:13:38;;;;;;;12.93;6.30;;;8.20;99.90;;;;;;5045718;28;20045;-85
2023/10/25 03:16:05;;;;;;;12.82;5.80;;;8.10;99.90;;;;;;5049051;28;20128;-85
2023/10/25 03:18:33;;;;;;;14.75;6.75;;;8.20;99.90;;;;;;5030566;28;20046;-85
2023/10/25 03:21:03;;;;;;;10.93;5.75;;;8.20;99.90;;;;;;5032883;28;20038;-85
2023/10/25 03:23:33;;;;;;;14.35;5.72;;;8.20;99.90;;;;;;5039166;28;20044;-85
2023/10/25 03:26:05;;;;;;;14.68;6.05;;;8.70;99.90;;;;;;5042926;28;20042;-85
2023/10/25 03:28:32;;;;;;;12.25;6.32;;;8.20;99.90;;;;;;5047468;28;20038;-85
2023/10/25 03:31:04;;;;;;;13.60;5.68;;;8.20;99.90;;;;;;5042794;28;20038;-85
2023/10/25 03:33:31;;;;;;;10.00;5.60;;;8.20;99.90;;;;;;5034243;28;20041;-85
2023/10/25 03:35:58;;;;;;;13.05;5.53;;;8.20;99.90;;;;;;5052709;28;20100;-86
2023/10/25 03:38:25;;;;;;;13.30;6.22;;;8.40;99.90;;;;;;5046261;28;20487;-86
2023/10/25 03:41:06;;;;;;;11.50;5.40;;;8.40;99.90;;;;;;5040565;28;20049;-86
2023/10/25 03:43:35;;;;;;;11.85;5.55;;;8.30;99.90;;;;;;5051281;28;20045;-86
2023/10/25 03:46:03;;;;;;;10.90;5.32;;;8.20;99.90;;;;;;5051904;28;20128;-86
2023/10/25 03:48:31;;;;;;;14.02;5.32;;;8.10;99.90;;;;;;5046880;28;20037;-85
2023/10/25 03:50:58;;;;;;;14.90;6.28;;;8.90;99.90;;;;;;5055796;28;20038;-86
2023/10/25 03:53:24;;;;;;;12.52;5.32;;;8.70;99.90;;;;;;5036627;28;20073;-86
2023/10/25 03:55:53;;;;;;;9.60;5.38;;;8.10;99.90;;;;;;5062165;28;20519;-86
2023/10/25 03:58:20;;;;;;;10.57;6.13;;;8.10;99.90;;;;;;5035498;28;20041;-85
2023/10/25 04:00:47;;;;;;;12.48;5.40;;;8.10;99.90;;;;;;5055488;28;20060;-86
2023/10/25 04:03:13;;;;;;;13.75;5.85;;;8.30;99.90;;;;;;5041215;28;20511;-86
2023/10/25 04:05:40;;;;;;;9.00;5.35;;;8.50;99.90;;;;;;5049914;28;20052;-86
2023/10/25 04:08:07;;;;;;;11.65;4.82;;;8.20;99.90;;;;;;5071571;28;20060;-86
2023/10/25 04:10:33;;;;;;;10.55;5.15;;;8.20;99.90;;;;;;5048272;28;20045;-86
2023/10/25 04:13:00;;;;;;;10.45;5.45;;;8.70;99.90;;;;;;5047422;28;20128;-86
2023/10/25 04:15:28;;;;;;;11.38;5.40;;;8.20;99.90;;;;;;5038971;28;20052;-86
2023/10/25 04:17:55;;;;;;;15.10;5.38;;;8.10;99.90;;;;;;5057041;28;20061;-86
2023/10/25 04:20:22;;;;;;;14.27;5.00;;;8.10;99.90;;;;;;5062348;28;20041;-86
2023/10/25 04:22:51;;;;;;;9.00;4.70;;;8.10;99.90;;;;;;5051429;28;20060;-86
2023/10/25 04:25:19;;;;;;;17.80;5.60;;;8.80;99.90;;;;;;5039568;28;20030;-86
2023/10/25 04:27:45;;;;;;;11.45;5.32;;;8.10;99.90;;;;;;5039282;28;20475;-86
2023/10/25 04:30:12;;;;;;;11.55;5.18;;;8.80;99.90;;;;;;5051815;28;20040;-85
2023/10/25 04:32:38;;;;;;;13.90;5.57;;;8.00;99.90;;;;;;5063950;28;20483;-85
2023/10/25 04:35:05;;;;;;;11.15;5.15;;;8.00;99.90;;;;;;5047282;28;20471;-85
2023/10/25 04:37:33;;;;;;;10.73;5.38;;;8.00;99.90;;;;;;5036967;28;20121;-85
2023/10/25 04:39:59;;;;;;;11.32;5.10;;;7.90;99.90;;;;;;5063199;28;20473;-86
2023/10/25 04:42:26;;;;;;;10.55;5.07;;;7.90;99.90;;;;;;5047016;28;20124;-85
2023/10/25 04:44:55;;;;;;;9.93;4.70;;;7.90;99.90;;;;;;5042840;28;20407;-86
2023/10/25 04:47:22;;;;;;;12.13;5.30;;;7.80;99.90;;;;;;5050990;28;20045;-86
2023/10/25 04:49:49;;;;;;;10.55;5.32;;;8.00;99.90;;;;;;5051325;28;20802;-85
2023/10/25 04:52:16;;;;;;;8.82;5.35;;;7.80;99.90;;;;;;5047245;28;20029;-85
2023/10/25 04:54:44;;;;;;;11.93;4.97;;;8.20;99.90;;;;;;5039075;28;20034;-85
2023/10/25 04:57:10;;;;;;;10.77;4.75;;;7.80;99.90;;;;;;5042806;28;20049;-85
2023/10/25 04:59:37;;;;;;;11.20;4.85;;;7.70;99.90;;;;;;5038853;28;20057;-86
2023/10/25 05:02:04;;;;;;;9.25;4.40;;;7.70;99.90;;;;;;5047966;28;20090;-86
2023/10/25 05:04:30;;;;;;;8.20;4.50;;;7.70;99.90;;;;;;5045794;28;20073;-86
2023/10/25 05:06:57;;;;;;;9.13;4.70;;;7.90;99.90;;;;;;5041217;28;20038;-86
2023/10/25 05:09:24;;;;;;;9.43;4.57;;;7.60;99.90;;;;;;5061088;28;20125;-86
2023/10/25 05:12:03;;;;;;;8.13;4.25;;;7.50;99.90;;;;;;5041139;28;20095;-86
2023/10/25 05:14:30;;;;;;;10.18;4.88;;;7.50;99.90;;;;;;5047297;28;20121;-86
2023/10/25 05:16:57;;;;;;;11.55;5.10;;;7.50;99.90;;;;;;5068917;28;20088;-85
2023/10/25 05:19:28;;;;;;;9.32;5.43;;;7.40;99.90;;;;;;5051403;28;20042;-86
2023/10/25 05:21:55;;;;;;;13.20;5.43;;;7.40;99.90;;;;;;5051167;28;20049;-86
2023/10/25 05:24:22;;;;;;;10.15;5.28;;;7.40;99.90;;;;;;5049854;28;20041;-86
2023/10/25 05:26:49;;;;;;;13.05;5.07;;;7.40;99.90;;;;;;5037418;28;20061;-86
2023/10/25 05:29:16;;;;;;;9.63;5.40;;;7.40;99.90;;;;;;5050322;28;20041;-86
2023/10/25 05:31:43;;;;;;;12.82;5.03;;;7.40;99.90;;;;;;5050348;28;20037;-85
2023/10/25 05:34:11;;;;;;;12.88;5.60;;;7.40;99.90;;;;;;5044017;28;20052;-86
2023/10/25 05:36:38;;;;;;;9.68;4.85;;;7.40;99.90;;;;;;5059812;28;20046;-85
2023/10/25 05:39:05;;;;;;;11.30;5.13;;;7.40;99.90;;;;;;5059936;28;20503;-86
2023/10/25 05:41:37;;;;;;;9.95;4.88;;;7.40;99.90;;;;;;5036509;28;20148;-85
2023/10/25 05:44:14;;;;;;;10.60;4.90;;;7.40;99.90;;;;;;5047443;28;20087;-86
2023/10/25 05:46:41;;;;;;;11.07;5.00;;;7.30;99.90;;;;;;5045358;28;20113;-86
2023/10/25 05:49:09;;;;;;;7.97;4.78;;;7.70;99.90;;;;;;5063267;28;20486;-85
2023/10/25 05:51:36;;;;;;;13.27;4.82;;;7.30;99.90;;;;;;5042689;28;20048;-86
2023/10/25 05:54:03;;;;;;;11.15;4.88;;;7.30;99.90;;;;;;5042222;28;20029;-86
2023/10/25 05:56:30;;;;;;;10.18;4.63;;;7.30;99.90;;;;;;5042965;28;20480;-85
2023/10/25 05:58:57;;;;;;;8.68;4.57;;;7.30;99.90;;;;;;5055309;28;20053;-86
2023/10/25 06:01:34;;;;;;;10.35;5.45;;;7.30;99.90;;;;;;5047194;28;20053;-86
2023/10/25 06:04:04;;;;;;;15.00;4.65;;;7.80;99.90;;;;;;5043521;28;20099;-86
2023/10/25 06:06:32;;;;;;;14.05;4.70;;;7.20;99.90;;;;;;5057255;28;20104;-86
2023/10/25 06:08:59;;;;;;;13.23;5.35;;;7.40;99.90;;;;;;5048328;28;20069;-85
2023/10/25 06:11:29;;;;;;;11.13;4.70;;;7.20;99.90;;;;;;5050188;28;20077;-86
2023/10/25 06:13:56;;;;;;;13.40;5.43;;;7.20;99.90;;;;;;5051149;28;20526;-85
2023/10/25 06:16:22;;;;;;;12.48;6.00;;;7.20;99.90;;;;;;5047360;28;20484;-86
2023/10/25 06:18:49;;;;;;;9.68;5.38;;;7.60;99.90;;;;;;5055645;28;20048;-85
2023/10/25 06:21:16;;;;;;;10.18;4.88;;;7.20;99.90;;;;;;5049611;28;20045;-85
2023/10/25 06:23:42;;;;;;;10.15;5.05;;;7.20;99.90;;;;;;5034021;28;20044;-85
2023/10/25 06:26:09;;;;;;;12.20;5.22;;;7.20;99.90;;;;;;5039578;28;20072;-85
2023/10/25 06:28:36;;;;;;;12.43;5.55;;;7.20;99.90;;;;;;5055778;28;20048;-85
2023/10/25 06:31:02;;;;;;;10.82;5.28;;;7.20;99.90;;;;;;5045897;28;20041;-85
2023/10/25 06:33:30;;;;;;;9.45;4.47;;;7.30;99.90;;;;;;5067048;28;20472;-85
2023/10/25 06:36:01;;;;;;;9.85;5.15;;;7.30;99.90;;;;;;5046575;28;20041;-85
2023/10/25 06:38:27;;;;;;;11.00;5.40;;;7.30;99.90;;;;;;5040681;28;20046;-85
2023/10/25 06:40:55;;;;;;;8.70;5.05;;;7.30;99.90;;;;;;5041281;28;20060;-85
2023/10/25 06:43:22;;;;;;;13.90;5.30;;;7.30;99.90;;;;;;5037597;28;20037;-85
2023/10/25 06:45:49;;;;;;;9.35;4.80;;;7.30;99.90;;;;;;5041472;28;20038;-85
2023/10/25 06:48:16;;;;;;;10.98;5.25;;;7.30;99.90;;;;;;5034449;28;20042;-85
2023/10/25 06:50:46;;;;;;;11.55;5.30;;;7.40;99.90;;;;;;5039811;28;20049;-85
2023/10/25 06:53:13;;;;;;;8.70;5.10;;;7.50;99.90;;;;;;5056566;28;20064;-86
2023/10/25 06:55:40;;;;;;;9.40;4.97;;;7.40;99.90;;;;;;5038476;28;20525;-86
2023/10/25 06:58:07;;;;;;;11.00;4.93;;;7.30;99.90;;;;;;5053195;28;20076;-86
2023/10/25 07:00:33;;;;;;;10.70;5.00;;;7.40;99.90;;;;;;5049589;28;20532;-87
2023/10/25 07:03:04;;;;;;;12.07;4.93;;;7.40;99.90;;;;;;5037762;28;20072;-86
2023/10/25 07:05:31;;;;;;;12.48;5.15;;;7.40;99.90;;;;;;5061425;28;20034;-85
2023/10/25 07:07:58;;;;;;;12.90;5.03;;;7.40;99.90;;;;;;5054520;28;20033;-83
2023/10/25 07:10:25;;;;;;;10.00;4.70;;;7.40;99.90;;;;;;5047134;28;20034;-84
2023/10/25 07:12:52;;;;;;;11.63;5.00;;;7.30;99.90;;;;;;5046925;28;20037;-84
2023/10/25 07:15:18;;;;;;;11.40;4.78;;;7.50;99.90;;;;;;5038729;28;20037;-84
2023/10/25 07:17:45;;;;;;;8.50;4.43;;;7.50;99.90;;;;;;5043838;28;20040;-84
2023/10/25 07:20:12;;;;;;;12.15;5.05;;;7.60;99.90;;;;;;5044559;28;20037;-84
2023/10/25 07:22:40;;;;;;;10.85;4.95;;;7.90;99.90;;;;;;5052500;28;20091;-84
2023/10/25 07:25:07;;;;;;;11.55;5.53;;;7.70;99.90;;;;;;5049927;28;20041;-84
2023/10/25 07:27:37;;;;;;;10.65;4.93;;;7.70;99.90;;;;;;5049103;28;20069;-84
2023/10/25 07:30:04;;;;;;;9.77;5.05;;;7.90;99.90;;;;;;5042199;28;20535;-84
2023/10/25 07:32:32;;;;;;;11.38;4.80;;;7.70;99.90;;;;;;5048250;28;20100;-85
2023/10/25 07:34:59;;;;;;;9.75;5.03;;;8.40;99.90;;;;;;5026556;28;20565;-84
2023/10/25 07:37:25;;;;;;;11.38;5.32;;;7.80;99.90;;;;;;5064372;28;20050;-84
2023/10/25 07:39:52;;;;;;;11.00;5.80;;;8.40;99.90;;;;;;5038230;28;20041;-84
2023/10/25 07:42:19;;;;;;;12.18;5.40;;;7.90;99.90;;;;;;5052586;28;20053;-84
2023/10/25 07:44:45;;;;;;;10.25;5.13;;;7.90;99.90;;;;;;5052198;28;20046;-84
2023/10/25 07:47:14;;;;;;;15.93;5.88;;;7.80;99.90;;;;;;5039170;28;20038;-83
2023/10/25 07:49:45;;;;;;;13.23;5.50;;;8.50;99.90;;;;;;5052099;28;20541;-84
2023/10/25 07:52:12;;;;;;;11.48;5.32;;;8.50;99.90;;;;;;5054115;28;20033;-83
2023/10/25 07:54:39;;;;;;;10.88;5.15;;;7.90;99.90;;;;;;5043897;28;20047;-84
2023/10/25 07:57:06;;;;;;;11.45;5.53;;;7.90;99.90;;;;;;5041997;28;20045;-84
2023/10/25 07:59:32;;;;;;;11.05;5.32;;;8.40;99.90;;;;;;5042626;28;20061;-84
2023/10/25 08:02:02;;;;;;;8.90;5.47;;;8.00;99.90;;;;;;5047787;28;20493;-84
2023/10/25 08:04:29;;;;;;;11.50;5.90;;;8.00;99.90;;;;;;5051081;28;20091;-83
2023/10/25 08:06:56;;;;;;;13.27;5.80;;;8.60;99.90;;;;;;5065942;28;20046;-83
2023/10/25 08:09:22;;;;;;;16.00;6.30;;;8.10;99.90;;;;;;5047849;28;20038;-84
2023/10/25 08:11:49;;;;;;;11.05;5.57;;;8.20;99.90;;;;;;5052005;28;20128;-84
2023/10/25 08:14:19;;;;;;;16.83;6.47;;;8.10;99.90;;;;;;5051640;28;20796;-84
2023/10/25 08:16:46;;;;;;;13.75;6.40;;;8.20;99.90;;;;;;5068077;28;20475;-83
2023/10/25 08:19:12;;;;;;;19.48;6.60;;;8.20;99.90;;;;;;5046028;28;20080;-83
2023/10/25 08:21:40;;;;;;;13.25;6.20;;;8.20;99.90;;;;;;5043840;28;20045;-84
2023/10/25 08:24:07;;;;;;;13.73;6.13;;;9.00;99.90;;;;;;5054282;28;20807;-83
2023/10/25 08:26:39;;;;;;;12.75;6.70;;;8.30;99.90;;;;;;5051403;28;20124;-84
2023/10/25 08:29:06;;;;;;;13.55;6.68;;;8.30;99.90;;;;;;5054360;28;20095;-84
2023/10/25 08:31:34;;;;;;;14.27;6.97;;;8.40;99.90;;;;;;5051334;28;20041;-83
2023/10/25 08:34:00;;;;;;;14.07;6.70;;;8.40;99.90;;;;;;5053498;28;20045;-83
2023/10/25 08:36:31;;;;;;;10.10;6.03;;;8.70;99.90;;;;;;5051433;28;20063;-84
2023/10/25 08:38:58;;;;;;;12.18;6.65;;;8.80;99.90;;;;;;5060081;28;20181;-84
2023/10/25 08:41:25;;;;;;;11.70;6.25;;;8.90;99.90;;;;;;5047845;28;20041;-83
2023/10/25 08:43:54;;;;;;;11.77;6.72;;;8.50;99.90;;;;;;5069046;28;20045;-83
2023/10/25 08:46:22;;;;;;;13.85;6.35;;;8.60;99.90;;;;;;5039328;28;20034;-83
2023/10/25 08:48:52;;;;;;;9.85;6.10;;;8.70;99.90;;;;;;5051017;28;20136;-84
2023/10/25 08:51:19;;;;;;;12.30;6.40;;;8.70;99.90;;;;;;5038056;28;20860;-83
2023/10/25 08:53:46;;;;;;;13.30;6.50;;;8.80;99.90;;;;;;5050718;28;20042;-84
2023/10/25 08:56:12;;;;;;;14.43;6.63;;;8.90;99.90;;;;;;5045295;28;20092;-84
2023/10/25 08:58:39;;;;;;;17.77;6.60;;;8.90;99.90;;;;;;5047041;28;20057;-83
2023/10/25 09:01:06;;;;;;;13.27;6.53;;;8.90;99.90;;;;;;5046118;28;20046;-84
2023/10/25 09:03:32;;;;;;;12.13;6.63;;;9.70;99.90;;;;;;5053909;28;20098;-84
2023/10/25 09:06:01;;;;;;;14.10;6.47;;;9.10;99.90;;;;;;5069100;28;20052;-83
2023/10/25 09:08:29;;;;;;;15.93;7.00;;;9.20;99.90;;;;;;5053196;28;20550;-83
2023/10/25 09:10:56;;;;;;;11.00;6.40;;;9.20;99.90;;;;;;5034678;28;20043;-83
2023/10/25 09:13:24;;;;;;;11.15;6.65;;;9.30;99.90;;;;;;5047331;28;20388;-84
2023/10/25 09:15:51;;;;;;;17.83;7.47;;;9.30;99.90;;;;;;5043077;28;20088;-84
2023/10/25 09:18:17;;;;;;;14.48;7.18;;;9.80;99.90;;;;;;5053878;28;20079;-83
2023/10/25 09:20:49;;;;;;;14.13;7.70;;;9.50;99.90;;;;;;5036996;28;20539;-84
2023/10/25 09:23:16;;;;;;;16.05;7.38;;;9.70;99.90;;;;;;5046323;28;20119;-84
2023/10/25 09:25:44;;;;;;;13.70;6.70;;;9.70;99.90;;;;;;5083520;28;20045;-84
2023/10/25 09:28:27;;;;;;;15.98;7.25;;;9.70;99.90;;;;;;5053934;28;20533;-84
2023/10/25 09:31:01;;;;;;;12.05;7.03;;;9.90;99.90;;;;;;5059762;28;20058;-84
2023/10/25 09:33:29;;;;;;;13.27;7.15;;;9.80;99.90;;;;;;5053353;28;20040;-84
2023/10/25 09:35:56;;;;;;;11.63;6.70;;;10.00;99.90;;;;;;5053746;28;20367;-84
2023/10/25 09:38:24;;;;;;;11.85;7.00;;;9.90;99.90;;;;;;5040716;28;20040;-84
2023/10/25 09:40:51;;;;;;;14.70;7.50;;;10.40;99.90;;;;;;5042459;28;20037;-84
2023/10/25 09:43:24;;;;;;;15.10;6.80;;;10.50;99.90;;;;;;5052139;28;20075;-84
2023/10/25 09:45:52;;;;;;;10.40;6.63;;;10.80;99.90;;;;;;5040466;28;20033;-84
2023/10/25 09:48:20;;;;;;;12.65;7.60;;;10.60;99.90;;;;;;5040541;28;20033;-84
2023/10/25 09:51:12;;;;;;;18.17;8.00;;;10.10;99.90;;;;;;5053621;28;20036;-84
2023/10/25 09:53:49;;;;;;;16.15;7.38;;;10.20;99.90;;;;;;5053863;28;20056;-84
2023/10/25 09:56:16;;;;;;;17.13;8.32;;;10.20;99.90;;;;;;5036879;28;20041;-84
2023/10/25 09:58:44;;;;;;;14.88;6.88;;;10.40;99.90;;;;;;5046665;28;20057;-84
2023/10/25 10:01:11;;;;;;;12.38;6.88;;;10.40;99.90;;;;;;5056530;28;20503;-84
2023/10/25 10:03:51;;;;;;;13.32;7.22;;;10.50;99.90;;;;;;5053346;28;20040;-84
2023/10/25 10:07:06;;;;;;;10.15;6.50;;;10.60;99.90;;;;;;5053206;28;20048;-84
2023/10/25 10:09:43;;;;;;;13.45;7.07;;;10.70;99.90;;;;;;4996135;28;20054;-84
2023/10/25 10:12:10;;;;;;;12.90;6.53;;;10.70;99.90;;;;;;4989600;28;20051;-83
2023/10/25 10:14:40;;;;;;;11.00;6.13;;;11.00;99.90;;;;;;4973947;28;20596;-84
2023/10/25 10:17:12;;;;;;;9.68;6.40;;;11.10;99.90;;;;;;4973702;28;20042;-84
2023/10/25 10:19:40;;;;;;;13.95;6.43;;;11.10;99.90;;;;;;4973810;28;20061;-84
2023/10/25 10:22:13;;;;;;;11.90;6.50;;;11.20;99.90;;;;;;4974113;28;20039;-84
2023/10/25 10:24:56;;;;;;;10.48;5.85;;;11.20;99.90;;;;;;4974103;28;20047;-83
2023/10/25 10:27:41;;;;;;;13.05;6.28;;;11.40;99.90;;;;;;4983029;28;20847;-84
2023/10/25 10:30:22;;;;;;;10.38;6.43;;;11.50;99.90;;;;;;4973796;28;20051;-84
2023/10/25 10:32:56;;;;;;;11.27;5.90;;;11.60;99.90;;;;;;4984575;28;20042;-84
2023/10/25 10:35:24;;;;;;;10.25;5.50;;;11.60;99.90;;;;;;4990217;28;20066;-84
2023/10/25 10:37:57;;;;;;;10.27;5.70;;;11.60;99.90;;;;;;4973956;28;20071;-84
2023/10/25 10:40:24;;;;;;;9.85;5.47;;;11.70;99.90;;;;;;4973973;28;20125;-84
2023/10/25 10:42:51;;;;;;;8.68;5.28;;;11.70;99.90;;;;;;4974011;28;20137;-84
2023/10/25 10:45:19;;;;;;;8.35;5.05;;;11.70;99.90;;;;;;5016732;28;20046;-84
2023/10/25 10:48:21;;;;;;;12.38;5.18;;;11.80;99.90;;;;;;5042487;28;20125;-84
2023/10/25 10:50:49;;;;;;;13.73;5.18;;;11.90;99.90;;;;;;5043697;28;20116;-83
2023/10/25 10:53:15;;;;;;;12.48;5.63;;;12.00;99.90;;;;;;5049429;28;20037;-84
2023/10/25 10:55:44;;;;;;;9.48;4.65;;;12.10;99.90;;;;;;5034357;28;20048;-84
2023/10/25 10:58:11;;;;;;;9.00;4.10;;;12.10;99.90;;;;;;5038006;28;20045;-84
2023/10/25 11:00:44;;;;;;;9.10;4.18;;;12.20;99.90;;;;;;5048603;28;20582;-84
2023/10/25 11:03:11;;;;;;;8.65;4.53;;;12.10;99.90;;;;;;5049554;28;20049;-84
2023/10/25 11:05:38;;;;;;;13.25;3.78;;;12.10;99.90;;;;;;5061351;28;20050;-84
2023/10/25 11:08:10;;;;;;;8.15;4.30;;;12.20;99.90;;;;;;5029752;28;20038;-84
2023/10/25 11:10:38;;;;;;;11.25;3.47;;;12.10;99.90;;;;;;5026189;28;20037;-84
2023/10/25 11:13:09;;;;;;;7.78;3.60;;;12.20;99.90;;;;;;5028399;28;20077;-84
2023/10/25 11:15:36;;;;;;;10.30;4.18;;;12.20;99.90;;;;;;5027746;28;20125;-84
2023/10/25 11:18:08;;;;;;;10.05;3.80;;;12.10;99.90;;;;;;5048788;28;20038;-83
2023/10/25 11:20:35;;;;;;;8.75;3.78;;;12.20;99.90;;;;;;5027914;28;20037;-84
2023/10/25 11:23:05;;;;;;;12.88;3.60;;;12.20;99.90;;;;;;5056128;28;20076;-83
2023/10/25 11:25:32;;;;;;;5.57;3.33;;;12.20;99.90;;;;;;5039037;28;20403;-84
2023/10/25 11:27:59;;;;;;;9.27;3.75;;;12.30;99.90;;;;;;5037639;28;20034;-84
2023/10/25 11:30:26;;;;;;;10.13;3.78;;;12.30;99.90;;;;;;5028555;28;20041;-84
2023/10/25 11:32:52;;;;;;;7.13;3.35;;;12.20;99.90;;;;;;5048999;28;20117;-84
2023/10/25 11:35:24;;;;;;;9.20;3.10;;;12.50;99.90;;;;;;5036001;28;20038;-83
2023/10/25 11:37:52;;;;;;;7.25;3.22;;;12.30;99.90;;;;;;5042617;28;20077;-84
2023/10/25 11:40:20;;;;;;;7.45;3.05;;;12.30;99.90;;;;;;5054434;28;20116;-84
2023/10/25 11:42:46;;;;;;;9.85;3.40;;;12.20;99.90;;;;;;5048846;28;20072;-84
2023/10/25 11:45:17;;;;;;;7.65;3.20;;;12.20;99.90;;;;;;5059714;28;20050;-84
2023/10/25 11:47:48;;;;;;;8.77;3.30;;;12.20;99.90;;;;;;5039524;28;20093;-84
2023/10/25 11:50:14;;;;;;;8.30;3.38;;;12.20;99.90;;;;;;5015678;28;20035;-84
2023/10/25 11:52:41;;;;;;;7.88;3.58;;;12.20;99.90;;;;;;5028592;28;20071;-84
2023/10/25 11:55:08;;;;;;;8.25;3.53;;;12.20;99.90;;;;;;5025866;28;20045;-84
2023/10/25 11:57:34;;;;;;;7.50;3.50;;;12.20;99.90;;;;;;5027496;28;20042;-84
2023/10/25 12:00:02;;;;;;;10.10;3.40;;;12.30;99.90;;;;;;5032181;28;20057;-84
2023/10/25 12:02:32;;;;;;;9.20;2.97;;;12.20;99.90;;;;;;5060817;28;20068;-84
2023/10/25 12:04:59;;;;;;;7.22;3.38;;;12.20;99.90;;;;;;5052115;28;20037;-84
2023/10/25 12:07:26;;;;;;;8.38;3.05;;;12.80;99.90;;;;;;5037913;28;20064;-84
2023/10/25 12:09:53;;;;;;;7.28;3.13;;;12.30;99.90;;;;;;5059741;28;20041;-84
2023/10/25 12:12:20;;;;;;;6.50;2.72;;;12.30;99.90;;;;;;5055119;28;20038;-84
2023/10/25 12:14:48;;;;;;;6.20;2.45;;;12.20;99.90;;;;;;5044886;28;20487;-84
2023/10/25 12:17:14;;;;;;;5.95;2.90;;;12.30;99.90;;;;;;5044075;28;20549;-83
2023/10/25 12:19:41;;;;;;;5.80;2.60;;;12.20;99.90;;;;;;5047721;28;20041;-84
2023/10/25 12:22:10;;;;;;;8.20;2.80;;;12.20;99.90;;;;;;5048769;28;20046;-84
2023/10/25 12:24:38;;;;;;;6.63;2.88;;;12.60;99.90;;;;;;5043689;28;20048;-84
2023/10/25 12:27:09;;;;;;;7.13;3.08;;;12.60;99.90;;;;;;5031633;28;20116;-84
2023/10/25 12:29:36;;;;;;;6.22;2.63;;;12.20;99.90;;;;;;5027393;28;20043;-84
2023/10/25 12:32:03;;;;;;;4.65;2.45;;;12.30;99.90;;;;;;5050376;28;20400;-84
2023/10/25 12:34:30;;;;;;;7.43;2.83;;;12.30;99.90;;;;;;5062826;28;20068;-83
2023/10/25 12:36:57;;;;;;;9.85;3.03;;;12.30;99.90;;;;;;5051664;28;20068;-84
2023/10/25 12:39:24;;;;;;;6.03;2.67;;;12.60;99.90;;;;;;5045120;28;20037;-84
2023/10/25 12:41:51;;;;;;;8.60;2.70;;;12.30;99.90;;;;;;5051107;28;20098;-84
2023/10/25 12:44:17;;;;;;;5.78;2.42;;;12.30;99.90;;;;;;5044017;28;20414;-84
2023/10/25 12:46:44;;;;;;;7.95;2.53;;;12.20;99.90;;;;;;5038298;28;20037;-84
2023/10/25 12:49:18;;;;;;;8.07;2.90;;;12.20;99.90;;;;;;5037677;28;20038;-84
2023/10/25 12:51:47;;;;;;;6.30;2.45;;;12.20;99.90;;;;;;5051186;28;20033;-84
2023/10/25 12:54:14;;;;;;;8.45;2.65;;;12.20;99.90;;;;;;5010706;28;20038;-84